To NAV CANADA Home Page Login to a new session Search on AWWS site Disclaimer Vers la page française équivalente Tips FAQ What's new on the site To the Forecasts and Observations / NOTAM section To "File a Flight Plan" website Publications and other links Update of the User's profile FIC Telephone Numbers My Weather Data Folder Route Weather Data Regional Weather Data Local Weather Data To the Forecasts and Observations / NOTAM section
Request Generated 01/23/2020 at 00:11:10 UTC . Weather information available at that time is displayed.

METAR/TAF

If you find any discrepancies between the coded METAR/TAF and the plain language METAR/TAF please use the coded METAR/TAF. LWIS bulletins are not decoded in plain language.

CALGARY/YYC CALGARY INTL/AB    

METAR CYYC 230000Z 26007KT 40SM FEW070 FEW200 03/M09 A2983 RMK AC1CI1 AC TR CI SLP140=
METAR
LOCATION
CYYC - CALGARY/YYC CALGARY INTL/AB
DATE - TIME
23 JANUARY 2020 - 0000 UTC
WIND
260 TRUE @ 7  KNOTS
VISIBILITY
40 STAT.  MILES
RUNWAY VISUAL RANGE
WEATHER
CLOUDINESS
FEW CLOUDS (1/8 - 2/8) 7000  FT
FEW CLOUDS (1/8 - 2/8) 20000  FT
TEMP / DEWPOINT
3 C / -9 C
ALTIMETER
29.83 IN HG
RECENT WEATHER
WIND SHEAR

METAR CYYC 222300Z 27010G16KT 40SM FEW070 FEW200 05/M10 A2981 RMK AC1CI1 AC TR TR SLP131=
METAR
LOCATION
CYYC - CALGARY/YYC CALGARY INTL/AB
DATE - TIME
22 JANUARY 2020 - 2300 UTC
WIND
270 TRUE @ 10  KNOTS
GUSTS
16 KNOTS
VISIBILITY
40 STAT.  MILES
RUNWAY VISUAL RANGE
WEATHER
CLOUDINESS
FEW CLOUDS (1/8 - 2/8) 7000  FT
FEW CLOUDS (1/8 - 2/8) 20000  FT
TEMP / DEWPOINT
5 C / -10 C
ALTIMETER
29.81 IN HG
RECENT WEATHER
WIND SHEAR

METAR CYYC 222200Z 27012G17KT 40SM FEW070 FEW200 06/M10 A2979 RMK AC1CI1 AC TR TR SLP120=
METAR
LOCATION
CYYC - CALGARY/YYC CALGARY INTL/AB
DATE - TIME
22 JANUARY 2020 - 2200 UTC
WIND
270 TRUE @ 12  KNOTS
GUSTS
17 KNOTS
VISIBILITY
40 STAT.  MILES
RUNWAY VISUAL RANGE
WEATHER
CLOUDINESS
FEW CLOUDS (1/8 - 2/8) 7000  FT
FEW CLOUDS (1/8 - 2/8) 20000  FT
TEMP / DEWPOINT
6 C / -10 C
ALTIMETER
29.79 IN HG
RECENT WEATHER
WIND SHEAR

TAF CYYC 222338Z 2300/2324 28010KT P6SM SKC FM231400 22008KT P6SM SCT150 BKN220 FM232200 28008KT P6SM FEW060 BKN150 BKN220 RMK NXT FCST BY 230300Z=
TAF
LOCATION

CYYC - CALGARY/YYC CALGARY INTL/AB
VALIDITY [UTC]
22 JAN - 2338 to
24 JAN - 0000
 
TIMES
[UTC]
WIND
[DEGREES TRUE]
VISIBILITY
[STAT. MILES]
WEATHER
CLOUDINESS
[FEET AGL]
 
23 JAN - 0000 to
23 JAN - 1400
280 @ 10 KNOTS
6+
NIL
CLEAR SKY
 
23 JAN - 1400 to
23 JAN - 2200
220 @ 8 KNOTS
6+
NIL
15000 SCATTERED
22000 BROKEN
 
23 JAN - 2200 to
24 JAN - 0000
280 @ 8 KNOTS
6+
NIL
6000 FEW
15000 BROKEN
22000 BROKEN
REMARKS
THE NEXT FORECAST WILL BE ISSUED BY 0300 UTC ON DAY 23


Your time UTC time
Weather data provided by Environment Canada and NAV CANADA